Time;durP1;ratioP1;P1;durP2;ratioP2;P2;SDS_P1;SDS_P2;PMS_P1;PMS_P2;Temp;Humidity;BMP_temperature;BMP_pressure;BME280_temperature;BME280_humidity;BME280_pressure;Samples;Min_cycle;Max_cycle;Signal;HPM_P1;HPM_P2
2022/10/15 00:01:09;;;;;;;0.20;0.20;;;;;;;;;;5008979;28;20450;-87
2022/10/15 00:03:35;;;;;;;0.10;0.10;;;;;;;;;;5024987;28;20422;-86
2022/10/15 00:06:08;;;;;;;0.10;0.10;;;;;;;;;;4994601;28;20437;-87
2022/10/15 00:08:34;;;;;;;0.20;0.20;;;;;;;;;;5016772;28;20904;-86
2022/10/15 00:11:12;;;;;;;0.40;0.30;;;;;;;;;;5021677;28;20425;-87
2022/10/15 00:13:38;;;;;;;0.30;0.30;;;;;;;;;;5019155;28;20458;-86
2022/10/15 00:16:07;;;;;;;0.10;0.10;;;;;;;;;;5024723;28;22042;-88
2022/10/15 00:18:33;;;;;;;0.60;0.60;;;;;;;;;;5024425;28;20466;-88
2022/10/15 00:20:59;;;;;;;0.80;0.50;;;;;;;;;;5012371;28;20483;-88
2022/10/15 00:23:25;;;;;;;0.10;0.10;;;;;;;;;;5009492;28;20506;-88
2022/10/15 00:26:00;;;;;;;0.10;0.10;;;;;;;;;;5012482;28;20441;-88
2022/10/15 00:28:26;;;;;;;0.10;0.10;;;;;;;;;;5028661;28;20402;-88
2022/10/15 00:30:52;;;;;;;0.10;0.10;;;;;;;;;;5028779;28;20477;-88
2022/10/15 00:33:18;;;;;;;0.00;0.00;;;;;;;;;;5018581;28;20511;-88
2022/10/15 00:35:44;;;;;;;0.40;0.40;;;;;;;;;;5038450;28;20443;-88
2022/10/15 00:38:10;;;;;;;0.10;0.10;;;;;;;;;;5018550;28;20411;-88
2022/10/15 00:40:36;;;;;;;0.30;0.30;;;;;;;;;;5031955;28;20463;-88
2022/10/15 00:43:03;;;;;;;0.10;0.10;;;;;;;;;;4995975;28;20500;-87
2022/10/15 00:45:29;;;;;;;0.10;0.10;;;;;;;;;;5019772;28;20432;-87
2022/10/15 00:47:55;;;;;;;0.50;0.40;;;;;;;;;;4986607;28;20475;-87
2022/10/15 00:50:23;;;;;;;0.20;0.20;;;;;;;;;;4995640;28;20433;-88
2022/10/15 00:53:05;;;;;;;0.10;0.10;;;;;;;;;;5004776;28;20785;-89
2022/10/15 00:55:33;;;;;;;0.10;0.10;;;;;;;;;;5006208;28;20438;-87
2022/10/15 00:58:07;;;;;;;0.20;0.20;;;;;;;;;;5010013;28;21005;-87
2022/10/15 01:00:33;;;;;;;0.00;0.00;;;;;;;;;;5008707;28;20419;-87
2022/10/15 01:03:00;;;;;;;0.10;0.10;;;;;;;;;;5010617;28;20466;-87
2022/10/15 01:05:26;;;;;;;0.38;0.38;;;;;;;;;;5011589;28;20431;-87
2022/10/15 01:07:52;;;;;;;1.08;0.70;;;;;;;;;;5010023;28;20426;-87
2022/10/15 01:10:19;;;;;;;0.30;0.30;;;;;;;;;;5009929;28;20488;-88
2022/10/15 01:13:08;;;;;;;0.60;0.40;;;;;;;;;;5033865;28;20451;-87
2022/10/15 01:15:44;;;;;;;0.10;0.10;;;;;;;;;;5033577;28;20442;-87
2022/10/15 01:18:14;;;;;;;0.20;0.20;;;;;;;;;;5032505;28;20529;-88
2022/10/15 01:20:43;;;;;;;0.10;0.10;;;;;;;;;;5033593;28;20486;-88
2022/10/15 01:23:29;;;;;;;0.10;0.10;;;;;;;;;;5031452;28;20423;-87
2022/10/15 01:26:06;;;;;;;0.60;0.40;;;;;;;;;;5000029;28;20439;-88
2022/10/15 01:28:48;;;;;;;0.10;0.10;;;;;;;;;;5009661;28;20435;-88
2022/10/15 01:31:14;;;;;;;0.10;0.10;;;;;;;;;;5021490;28;20844;-87
2022/10/15 01:33:52;;;;;;;0.20;0.20;;;;;;;;;;5024417;28;20423;-87
2022/10/15 01:36:21;;;;;;;0.30;0.30;;;;;;;;;;5023692;28;20464;-88
2022/10/15 01:38:53;;;;;;;0.20;0.20;;;;;;;;;;5002191;28;20921;-87
2022/10/15 01:41:27;;;;;;;0.10;0.10;;;;;;;;;;5013587;28;20469;-87
2022/10/15 01:43:53;;;;;;;0.10;0.10;;;;;;;;;;5010188;28;20434;-87
2022/10/15 01:46:35;;;;;;;0.10;0.10;;;;;;;;;;5028869;28;20427;-87
2022/10/15 01:49:03;;;;;;;0.10;0.10;;;;;;;;;;5014178;28;20503;-87
2022/10/15 01:51:30;;;;;;;0.10;0.10;;;;;;;;;;5009967;28;20434;-88
2022/10/15 01:53:58;;;;;;;0.20;0.20;;;;;;;;;;5009860;28;20488;-88
2022/10/15 01:56:25;;;;;;;0.28;0.28;;;;;;;;;;5009876;28;20465;-88
2022/10/15 01:58:52;;;;;;;0.10;0.10;;;;;;;;;;5011602;28;20820;-87
2022/10/15 02:01:18;;;;;;;0.20;0.20;;;;;;;;;;5009877;28;20435;-87
2022/10/15 02:03:49;;;;;;;0.10;0.10;;;;;;;;;;4994933;28;20506;-87
2022/10/15 02:06:21;;;;;;;0.60;0.30;;;;;;;;;;5011613;28;20429;-87
2022/10/15 02:09:03;;;;;;;0.40;0.20;;;;;;;;;;5013257;28;20422;-88
2022/10/15 02:11:29;;;;;;;0.10;0.10;;;;;;;;;;5009492;28;20431;-87
2022/10/15 02:14:14;;;;;;;0.10;0.10;;;;;;;;;;5025982;28;20423;-87
2022/10/15 02:16:44;;;;;;;1.20;0.60;;;;;;;;;;5009152;28;20428;-86
2022/10/15 02:19:19;;;;;;;0.20;0.20;;;;;;;;;;4996396;28;20460;-86
2022/10/15 02:22:01;;;;;;;0.70;0.70;;;;;;;;;;5032087;28;20937;-88
2022/10/15 02:24:29;;;;;;;1.70;0.40;;;;;;;;;;4998802;28;20923;-86
2022/10/15 02:26:57;;;;;;;0.30;0.30;;;;;;;;;;5022320;28;20439;-87
2022/10/15 02:29:26;;;;;;;0.10;0.10;;;;;;;;;;4980499;28;20436;-87
2022/10/15 02:31:53;;;;;;;0.20;0.20;;;;;;;;;;5009425;28;20427;-87
2022/10/15 02:34:20;;;;;;;0.15;0.15;;;;;;;;;;5011615;28;20455;-87
2022/10/15 02:36:47;;;;;;;0.10;0.10;;;;;;;;;;5013546;28;20517;-87
2022/10/15 02:39:16;;;;;;;0.28;0.28;;;;;;;;;;4995329;28;20430;-87
2022/10/15 02:41:42;;;;;;;0.10;0.10;;;;;;;;;;5009077;28;20898;-87
2022/10/15 02:44:08;;;;;;;0.10;0.10;;;;;;;;;;5007417;28;20454;-87
2022/10/15 02:46:34;;;;;;;0.10;0.10;;;;;;;;;;5028415;28;20422;-86
2022/10/15 02:49:00;;;;;;;0.30;0.30;;;;;;;;;;5011747;28;20442;-86
2022/10/15 02:51:26;;;;;;;0.22;0.22;;;;;;;;;;4991917;28;20462;-87
2022/10/15 02:53:53;;;;;;;0.20;0.10;;;;;;;;;;5011030;28;20435;-88
2022/10/15 02:56:19;;;;;;;0.10;0.10;;;;;;;;;;5007989;28;20427;-87
2022/10/15 02:58:45;;;;;;;;;;;;;;;;;;4995130;28;20042;-87
2022/10/15 03:01:11;;;;;;;;;;;;;;;;;;5010877;28;19987;-87
2022/10/15 03:03:36;;;;;;;;;;;;;;;;;;5027442;28;21323;-87
2022/10/15 03:06:02;;;;;;;;;;;;;;;;;;5024027;28;19929;-87
2022/10/15 03:08:28;;;;;;;;;;;;;;;;;;5011641;28;20004;-87
2022/10/15 03:10:54;;;;;;;;;;;;;;;;;;5010752;28;19923;-88
2022/10/15 03:13:21;;;;;;;;;;;;;;;;;;5009658;28;19967;-87
2022/10/15 03:15:47;;;;;;;;;;;;;;;;;;5027999;28;19952;-88
2022/10/15 03:18:13;;;;;;;;;;;;;;;;;;5016632;28;19917;-88
2022/10/15 03:20:39;;;;;;;;;;;;;;;;;;5010975;28;20384;-88
2022/10/15 03:23:05;;;;;;;;;;;;;;;;;;5003003;28;19921;-87
2022/10/15 03:25:31;;;;;;;;;;;;;;;;;;5003611;28;19933;-87
2022/10/15 03:27:57;;;;;;;;;;;;;;;;;;5009707;28;19917;-87
2022/10/15 03:30:23;;;;;;;;;;;;;;;;;;5012251;28;20045;-87
2022/10/15 03:32:49;;;;;;;;;;;;;;;;;;5023120;28;19921;-88
2022/10/15 03:35:15;;;;;;;;;;;;;;;;;;5030717;28;20058;-87
2022/10/15 03:37:41;;;;;;;;;;;;;;;;;;4997644;28;20272;-87
2022/10/15 03:40:07;;;;;;;;;;;;;;;;;;5022480;28;19921;-88
2022/10/15 03:42:33;;;;;;;;;;;;;;;;;;5006651;28;19972;-87
2022/10/15 03:44:59;;;;;;;;;;;;;;;;;;5023291;28;19917;-86
2022/10/15 03:47:25;;;;;;;;;;;;;;;;;;5007203;28;19932;-87
2022/10/15 03:49:50;;;;;;;;;;;;;;;;;;5019548;28;20056;-89
2022/10/15 03:52:16;;;;;;;;;;;;;;;;;;5025720;28;19921;-88
2022/10/15 03:54:42;;;;;;;;;;;;;;;;;;5023892;28;19924;-88
2022/10/15 03:57:08;;;;;;;;;;;;;;;;;;5005485;28;19918;-87
2022/10/15 03:59:34;;;;;;;;;;;;;;;;;;5003401;28;19945;-88
2022/10/15 04:02:00;;;;;;;;;;;;;;;;;;5005148;28;19917;-87
2022/10/15 04:04:26;;;;;;;;;;;;;;;;;;5022874;28;19932;-87
2022/10/15 04:06:52;;;;;;;;;;;;;;;;;;5006671;28;19969;-89
2022/10/15 04:09:18;;;;;;;;;;;;;;;;;;5020271;28;21416;-89
2022/10/15 04:11:44;;;;;;;0.20;0.20;;;;;;;;;;5007105;28;19925;-89
2022/10/15 04:14:10;;;;;;;0.10;0.10;;;;;;;;;;5006253;28;20044;-89
2022/10/15 04:16:36;;;;;;;0.10;0.10;;;;;;;;;;4992100;28;20359;-90
2022/10/15 04:19:03;;;;;;;0.20;0.20;;;;;;;;;;4989155;28;20365;-88
2022/10/15 04:21:29;;;;;;;0.10;0.10;;;;;;;;;;5003631;28;20042;-88
2022/10/15 04:23:55;;;;;;;0.10;0.10;;;;;;;;;;4988388;28;20033;-88
2022/10/15 04:26:21;;;;;;;0.10;0.10;;;;;;;;;;5006884;28;20046;-87
2022/10/15 04:28:48;;;;;;;0.10;0.10;;;;;;;;;;4973716;28;20041;-89
2022/10/15 04:31:14;;;;;;;0.20;0.20;;;;;;;;;;4990522;28;20042;-88
2022/10/15 04:33:40;;;;;;;0.10;0.10;;;;;;;;;;4989763;28;20040;-89
2022/10/15 04:36:08;;;;;;;0.20;0.20;;;;;;;;;;4990405;28;20088;-89
2022/10/15 04:38:34;;;;;;;0.10;0.10;;;;;;;;;;4992782;28;20065;-88
2022/10/15 04:41:01;;;;;;;0.05;0.05;;;;;;;;;;5006500;28;20050;-88
2022/10/15 04:43:28;;;;;;;0.10;0.10;;;;;;;;;;4991562;28;20057;-87
2022/10/15 04:45:58;;;;;;;0.20;0.20;;;;;;;;;;4994934;28;20485;-87
2022/10/15 04:48:24;;;;;;;0.20;0.20;;;;;;;;;;5011759;28;20054;-87
2022/10/15 04:50:50;;;;;;;0.25;0.25;;;;;;;;;;5010071;28;20038;-88
2022/10/15 04:53:16;;;;;;;0.10;0.10;;;;;;;;;;5010363;28;20517;-87
2022/10/15 04:55:42;;;;;;;0.20;0.20;;;;;;;;;;5007926;28;20046;-87
2022/10/15 04:58:08;;;;;;;0.30;0.30;;;;;;;;;;4976838;28;20039;-87
2022/10/15 05:00:34;;;;;;;0.10;0.10;;;;;;;;;;4993232;28;20049;-87
2022/10/15 05:03:00;;;;;;;0.10;0.10;;;;;;;;;;5007972;28;20034;-87
2022/10/15 05:05:26;;;;;;;0.10;0.10;;;;;;;;;;4993272;28;20485;-87
2022/10/15 05:07:52;;;;;;;0.10;0.10;;;;;;;;;;4994620;28;20046;-87
2022/10/15 05:10:18;;;;;;;0.32;0.32;;;;;;;;;;5009943;28;20050;-86
2022/10/15 05:12:44;;;;;;;0.10;0.10;;;;;;;;;;5007364;28;20048;-86
2022/10/15 05:15:10;;;;;;;0.30;0.30;;;;;;;;;;5008314;28;20030;-86
2022/10/15 05:17:36;;;;;;;0.10;0.10;;;;;;;;;;5010453;28;20078;-87
2022/10/15 05:20:02;;;;;;;0.10;0.10;;;;;;;;;;5005991;28;20088;-87
2022/10/15 05:22:29;;;;;;;0.13;0.13;;;;;;;;;;4993590;28;20384;-85
2022/10/15 05:24:55;;;;;;;0.10;0.10;;;;;;;;;;4993927;28;20576;-86
2022/10/15 05:27:21;;;;;;;0.00;0.00;;;;;;;;;;5008400;28;20104;-87
2022/10/15 05:29:47;;;;;;;1.65;0.73;;;;;;;;;;5007373;28;20053;-86
2022/10/15 05:32:13;;;;;;;0.10;0.10;;;;;;;;;;5009529;28;20185;-86
2022/10/15 05:34:39;;;;;;;0.10;0.10;;;;;;;;;;4990148;28;20046;-87
2022/10/15 05:37:06;;;;;;;0.30;0.30;;;;;;;;;;4988649;28;20081;-86
2022/10/15 05:39:32;;;;;;;0.95;0.85;;;;;;;;;;4994348;28;20132;-86
2022/10/15 05:41:58;;;;;;;0.10;0.10;;;;;;;;;;4992614;28;20042;-86
2022/10/15 05:44:24;;;;;;;0.10;0.10;;;;;;;;;;4975997;28;20413;-86
2022/10/15 05:46:50;;;;;;;0.20;0.20;;;;;;;;;;4993085;28;20088;-86
2022/10/15 05:49:18;;;;;;;0.82;0.82;;;;;;;;;;4992577;28;20041;-87
2022/10/15 05:51:44;;;;;;;0.25;0.25;;;;;;;;;;4996056;28;20526;-87
2022/10/15 05:54:10;;;;;;;2.85;0.65;;;;;;;;;;4990073;28;20041;-86
2022/10/15 05:56:36;;;;;;;0.08;0.08;;;;;;;;;;4993883;28;20073;-86
2022/10/15 05:59:03;;;;;;;0.20;0.20;;;;;;;;;;5008398;28;20088;-85
2022/10/15 06:01:29;;;;;;;1.75;0.75;;;;;;;;;;5024337;28;20652;-85
2022/10/15 06:03:55;;;;;;;0.20;0.20;;;;;;;;;;5007885;28;20741;-85
2022/10/15 06:06:23;;;;;;;1.88;1.77;;;;;;;;;;4986420;28;20527;-85
2022/10/15 06:08:49;;;;;;;0.10;0.10;;;;;;;;;;4990323;28;20041;-87
2022/10/15 06:11:15;;;;;;;0.30;0.30;;;;;;;;;;5007152;28;21396;-85
2022/10/15 06:13:42;;;;;;;0.30;0.30;;;;;;;;;;4991758;28;20115;-86
2022/10/15 06:16:09;;;;;;;0.10;0.10;;;;;;;;;;5006723;28;20045;-87
2022/10/15 06:18:35;;;;;;;1.05;1.05;;;;;;;;;;4992796;28;20488;-86
2022/10/15 06:21:02;;;;;;;0.10;0.10;;;;;;;;;;4996451;28;20077;-84
2022/10/15 06:23:28;;;;;;;0.63;0.63;;;;;;;;;;4995305;28;20100;-82
2022/10/15 06:25:54;;;;;;;0.10;0.10;;;;;;;;;;4992019;28;20497;-83
2022/10/15 06:28:20;;;;;;;0.60;0.57;;;;;;;;;;4971680;28;20128;-86
2022/10/15 06:30:46;;;;;;;0.20;0.20;;;;;;;;;;5002711;28;20038;-84
2022/10/15 06:33:12;;;;;;;0.40;0.40;;;;;;;;;;4989545;28;20068;-83
2022/10/15 06:35:39;;;;;;;1.23;1.02;;;;;;;;;;5002631;28;20049;-82
2022/10/15 06:38:05;;;;;;;4.13;1.33;;;;;;;;;;4980570;28;20388;-76
2022/10/15 06:40:31;;;;;;;0.25;0.25;;;;;;;;;;4996091;28;20143;-80
2022/10/15 06:43:07;;;;;;;0.17;0.17;;;;;;;;;;4988419;28;20082;-91
2022/10/15 06:45:35;;;;;;;0.50;0.50;;;;;;;;;;4990747;28;20051;-93
2022/10/15 06:48:03;;;;;;;2.90;0.82;;;;;;;;;;4991344;28;20042;-89
2022/10/15 06:50:29;;;;;;;0.10;0.10;;;;;;;;;;4985499;28;20050;-91
2022/10/15 06:52:55;;;;;;;0.10;0.10;;;;;;;;;;4992975;28;20047;-90
2022/10/15 06:55:22;;;;;;;0.40;0.40;;;;;;;;;;5004760;28;20046;-91
2022/10/15 06:57:49;;;;;;;0.25;0.25;;;;;;;;;;5002068;28;20039;-89
2022/10/15 07:00:15;;;;;;;3.00;2.65;;;;;;;;;;4990901;28;20057;-89
2022/10/15 07:02:41;;;;;;;0.20;0.20;;;;;;;;;;4975938;28;20054;-89
2022/10/15 07:05:08;;;;;;;0.75;0.70;;;;;;;;;;4988002;28;20039;-90
2022/10/15 07:07:34;;;;;;;0.20;0.20;;;;;;;;;;5008643;28;20101;-91
2022/10/15 07:10:00;;;;;;;0.40;0.40;;;;;;;;;;4966417;28;20082;-90
2022/10/15 07:12:26;;;;;;;0.75;0.75;;;;;;;;;;4965935;28;20093;-90
2022/10/15 07:14:52;;;;;;;0.10;0.10;;;;;;;;;;4991595;28;20446;-91
2022/10/15 07:17:18;;;;;;;1.10;1.00;;;;;;;;;;4992530;28;20461;-91
2022/10/15 07:19:45;;;;;;;0.63;0.63;;;;;;;;;;4992783;28;20053;-89
2022/10/15 07:22:11;;;;;;;0.25;0.25;;;;;;;;;;4991850;28;20046;-89
2022/10/15 07:24:37;;;;;;;2.83;2.63;;;;;;;;;;4992361;28;20088;-88
2022/10/15 07:27:03;;;;;;;0.45;0.40;;;;;;;;;;5009154;28;20515;-90
2022/10/15 07:29:30;;;;;;;0.22;0.22;;;;;;;;;;4991407;28;20129;-90
2022/10/15 07:31:56;;;;;;;0.17;0.17;;;;;;;;;;4986095;28;20078;-91
2022/10/15 07:34:22;;;;;;;0.38;0.38;;;;;;;;;;4970424;28;20457;-90
2022/10/15 07:36:48;;;;;;;1.25;1.17;;;;;;;;;;4986114;28;20129;-80
2022/10/15 07:39:17;;;;;;;6.53;1.48;;;;;;;;;;4990788;28;20042;-90
2022/10/15 07:41:44;;;;;;;0.10;0.10;;;;;;;;;;4995854;28;20369;-88
2022/10/15 07:44:11;;;;;;;0.38;0.38;;;;;;;;;;4977944;28;20045;-87
2022/10/15 07:46:37;;;;;;;0.43;0.43;;;;;;;;;;4991184;28;20045;-85
2022/10/15 07:49:03;;;;;;;1.20;1.10;;;;;;;;;;5007738;28;20381;-83
2022/10/15 07:51:29;;;;;;;0.38;0.38;;;;;;;;;;5010645;28;20057;-84
2022/10/15 07:53:55;;;;;;;0.10;0.10;;;;;;;;;;5006537;28;20049;-84
2022/10/15 07:56:21;;;;;;;0.10;0.10;;;;;;;;;;4981597;28;20385;-84
2022/10/15 07:58:50;;;;;;;2.05;0.98;;;;;;;;;;4992388;28;20042;-83
2022/10/15 08:01:17;;;;;;;1.17;1.15;;;;;;;;;;5022365;28;20045;-83
2022/10/15 08:03:43;;;;;;;0.20;0.20;;;;;;;;;;5009807;28;20512;-82
2022/10/15 08:06:09;;;;;;;0.95;0.85;;;;;;;;;;5009968;28;20041;-83
2022/10/15 08:08:36;;;;;;;2.05;0.82;;;;;;;;;;5007560;28;20299;-81
2022/10/15 08:11:06;;;;;;;0.65;0.65;;;;;;;;;;4992720;28;20111;-85
2022/10/15 08:13:32;;;;;;;0.50;0.50;;;;;;;;;;5006355;28;20061;-83
2022/10/15 08:15:58;;;;;;;0.73;0.45;;;;;;;;;;5011048;28;20065;-83
2022/10/15 08:18:25;;;;;;;2.13;0.70;;;;;;;;;;5009085;28;20500;-83
2022/10/15 08:20:51;;;;;;;0.13;0.13;;;;;;;;;;5013351;28;20069;-82
2022/10/15 08:23:17;;;;;;;1.70;1.08;;;;;;;;;;5013675;28;20104;-83
2022/10/15 08:25:44;;;;;;;0.47;0.47;;;;;;;;;;4996658;28;20057;-81
2022/10/15 08:28:10;;;;;;;0.52;0.52;;;;;;;;;;4998155;28;20482;-83
2022/10/15 08:30:37;;;;;;;0.20;0.20;;;;;;;;;;5012960;28;20045;-81
2022/10/15 08:33:03;;;;;;;1.50;0.90;;;;;;;;;;5011921;28;20137;-82
2022/10/15 08:35:34;;;;;;;1.98;1.55;;;;;;;;;;4989978;28;20044;-83
2022/10/15 08:38:00;;;;;;;0.10;0.10;;;;;;;;;;4981653;28;20046;-81
2022/10/15 08:40:28;;;;;;;0.40;0.40;;;;;;;;;;5007672;28;20084;-83
2022/10/15 08:42:54;;;;;;;0.10;0.10;;;;;;;;;;5013183;28;20412;-82
2022/10/15 08:45:25;;;;;;;1.48;1.02;;;;;;;;;;4987405;28;20046;-81
2022/10/15 08:48:03;;;;;;;1.42;1.33;;;;;;;;;;5005523;28;20046;-82
2022/10/15 08:50:29;;;;;;;1.00;1.00;;;;;;;;;;4997192;28;20050;-78
2022/10/15 08:52:56;;;;;;;1.85;1.48;;;;;;;;;;5009763;28;20038;-82
2022/10/15 08:55:23;;;;;;;5.28;2.47;;;;;;;;;;5011326;28;20501;-82
2022/10/15 08:57:53;;;;;;;0.68;0.68;;;;;;;;;;4995882;28;20057;-83
2022/10/15 09:00:20;;;;;;;0.10;0.10;;;;;;;;;;5010193;28;20061;-82
2022/10/15 09:03:00;;;;;;;0.93;0.93;;;;;;;;;;4994686;28;20046;-82
2022/10/15 09:05:44;;;;;;;0.25;0.25;;;;;;;;;;5012247;28;20049;-83
2022/10/15 09:08:25;;;;;;;0.60;0.43;;;;;;;;;;5005517;28;20485;-82
2022/10/15 09:10:52;;;;;;;0.28;0.28;;;;;;;;;;5013399;28;20100;-82
2022/10/15 09:13:30;;;;;;;0.13;0.13;;;;;;;;;;4988600;28;20088;-82
2022/10/15 09:15:59;;;;;;;0.10;0.10;;;;;;;;;;5010145;28;20050;-82
2022/10/15 09:18:27;;;;;;;0.40;0.40;;;;;;;;;;5002779;28;20073;-82
2022/10/15 09:20:53;;;;;;;0.47;0.20;;;;;;;;;;5009851;28;20042;-82
2022/10/15 09:23:25;;;;;;;0.43;0.43;;;;;;;;;;5007178;28;20078;-82
2022/10/15 09:26:03;;;;;;;1.00;1.00;;;;;;;;;;4995688;28;20050;-82
2022/10/15 09:28:35;;;;;;;1.45;1.38;;;;;;;;;;5011466;28;20042;-82
2022/10/15 09:31:02;;;;;;;0.10;0.10;;;;;;;;;;5013914;28;20053;-81
2022/10/15 09:33:47;;;;;;;0.43;0.43;;;;;;;;;;5011564;28;20042;-82
2022/10/15 09:36:19;;;;;;;0.10;0.10;;;;;;;;;;5012395;28;20053;-82
2022/10/15 09:38:53;;;;;;;0.10;0.10;;;;;;;;;;4991822;28;20042;-82
2022/10/15 09:41:48;;;;;;;1.75;1.05;;;;;;;;;;4995383;28;20445;-81
2022/10/15 09:44:14;;;;;;;0.57;0.57;;;;;;;;;;5012606;28;20052;-82
2022/10/15 09:46:45;;;;;;;1.65;0.63;;;;;;;;;;5013149;28;20077;-82
2022/10/15 09:49:18;;;;;;;0.10;0.10;;;;;;;;;;5008381;28;20038;-82
2022/10/15 09:51:47;;;;;;;0.60;0.60;;;;;;;;;;5013656;28;20046;-82
2022/10/15 09:54:22;;;;;;;8.68;2.20;;;;;;;;;;4995571;28;20477;-86
2022/10/15 09:56:52;;;;;;;1.85;1.05;;;;;;;;;;4989850;28;20119;-81
2022/10/15 09:59:19;;;;;;;0.55;0.55;;;;;;;;;;5008330;28;20126;-81
2022/10/15 10:02:11;;;;;;;0.17;0.17;;;;;;;;;;5008166;28;20038;-82
2022/10/15 10:04:37;;;;;;;0.10;0.10;;;;;;;;;;4993010;28;20058;-82
2022/10/15 10:07:06;;;;;;;0.10;0.10;;;;;;;;;;5012844;28;20046;-82
2022/10/15 10:09:34;;;;;;;0.20;0.20;;;;;;;;;;5011209;28;20136;-81
2022/10/15 10:12:01;;;;;;;0.22;0.22;;;;;;;;;;5010361;28;20400;-82
2022/10/15 10:14:27;;;;;;;1.75;1.65;;;;;;;;;;5009290;28;20041;-82
2022/10/15 10:17:23;;;;;;;0.88;0.88;;;;;;;;;;5002279;28;20044;-82
2022/10/15 10:20:08;;;;;;;0.57;0.57;;;;;;;;;;5005697;28;20042;-82
2022/10/15 10:22:43;;;;;;;1.25;1.17;;;;;;;;;;5009230;28;20042;-82
2022/10/15 10:25:23;;;;;;;0.10;0.10;;;;;;;;;;4994792;28;20046;-81
2022/10/15 10:27:49;;;;;;;1.92;1.75;;;;;;;;;;5001606;28;20405;-81
2022/10/15 10:30:16;;;;;;;0.43;0.43;;;;;;;;;;5011224;28;20451;-81
2022/10/15 10:32:42;;;;;;;0.43;0.43;;;;;;;;;;4994827;28;20636;-81
2022/10/15 10:35:08;;;;;;;;;;;;;;;;;;5010730;28;20551;-81
2022/10/15 10:37:43;;;;;;;0.57;0.57;;;;;;;;;;5011524;28;19921;-81
2022/10/15 10:40:09;;;;;;;;;;;;;;;;;;5011218;28;20049;-81
2022/10/15 10:42:37;;;;;;;;;;;;;;;;;;4994263;28;19921;-82
2022/10/15 10:45:03;;;;;;;;;;;;;;;;;;5010267;28;19929;-82
2022/10/15 10:47:28;;;;;;;;;;;;;;;;;;5011646;28;19932;-82
2022/10/15 10:49:54;;;;;;;;;;;;;;;;;;5027087;28;19925;-82
2022/10/15 10:52:20;;;;;;;;;;;;;;;;;;5002522;28;19922;-81
2022/10/15 10:54:46;;;;;;;;;;;;;;;;;;5009144;28;19928;-82
2022/10/15 10:57:12;;;;;;;;;;;;;;;;;;5008280;28;20585;-82
2022/10/15 10:59:38;;;;;;;;;;;;;;;;;;5008871;28;20002;-81
2022/10/15 11:02:05;;;;;;;;;;;;;;;;;;5006829;28;19929;-81
2022/10/15 11:04:31;;;;;;;;;;;;;;;;;;5001870;28;19925;-81
2022/10/15 11:06:57;;;;;;;;;;;;;;;;;;5009639;28;19929;-82
2022/10/15 11:09:23;;;;;;;;;;;;;;;;;;5011009;28;19921;-82
2022/10/15 11:11:49;;;;;;;;;;;;;;;;;;4993756;28;19921;-81
2022/10/15 11:14:16;;;;;;;;;;;;;;;;;;4993109;28;20012;-82
2022/10/15 11:16:42;;;;;;;;;;;;;;;;;;5008699;28;19929;-82
2022/10/15 11:19:08;;;;;;;;;;;;;;;;;;5026642;28;19927;-81
2022/10/15 11:21:34;;;;;;;;;;;;;;;;;;4992174;28;19985;-83
2022/10/15 11:24:00;;;;;;;;;;;;;;;;;;5026716;28;19921;-82
2022/10/15 11:26:26;;;;;;;;;;;;;;;;;;5015738;28;19943;-81
2022/10/15 11:28:52;;;;;;;;;;;;;;;;;;5015935;28;19926;-81
2022/10/15 11:31:18;;;;;;;;;;;;;;;;;;5013567;28;20388;-80
2022/10/15 11:33:44;;;;;;;;;;;;;;;;;;5012890;28;19932;-81
2022/10/15 11:36:10;;;;;;;;;;;;;;;;;;5013698;28;19921;-81
2022/10/15 11:38:36;;;;;;;;;;;;;;;;;;5013454;28;19925;-83
2022/10/15 11:41:02;;;;;;;;;;;;;;;;;;5012621;28;20024;-81
2022/10/15 11:43:28;;;;;;;;;;;;;;;;;;5013823;28;19976;-82
2022/10/15 11:45:54;;;;;;;;;;;;;;;;;;5016547;28;20387;-81
2022/10/15 11:48:20;;;;;;;;;;;;;;;;;;5013570;28;20003;-80
2022/10/15 11:50:46;;;;;;;;;;;;;;;;;;5007581;28;20352;-82
2022/10/15 11:53:12;;;;;;;;;;;;;;;;;;5017335;28;19925;-82
2022/10/15 11:55:38;;;;;;;;;;;;;;;;;;5012664;28;19948;-83
2022/10/15 11:58:04;;;;;;;;;;;;;;;;;;5027110;28;20288;-81
2022/10/15 12:00:30;;;;;;;;;;;;;;;;;;5009756;28;19921;-83
2022/10/15 12:02:55;;;;;;;;;;;;;;;;;;5003170;28;20410;-82
2022/10/15 12:05:26;;;;;;;;;;;;;;;;;;5011119;28;20060;-82
2022/10/15 12:07:52;;;;;;;;;;;;;;;;;;4987793;28;19925;-82
2022/10/15 12:10:18;;;;;;;;;;;;;;;;;;5009120;28;19929;-81
2022/10/15 12:12:44;;;;;;;;;;;;;;;;;;5009650;28;19921;-82
2022/10/15 12:15:10;;;;;;;;;;;;;;;;;;5010344;28;19921;-83
2022/10/15 12:17:36;;;;;;;;;;;;;;;;;;5011087;28;19971;-82
2022/10/15 12:20:01;;;;;;;;;;;;;;;;;;5009442;28;19925;-82
2022/10/15 12:22:27;;;;;;;;;;;;;;;;;;5007628;28;19989;-82
2022/10/15 12:24:54;;;;;;;;;;;;;;;;;;5009382;28;19965;-83
2022/10/15 12:27:20;;;;;;;;;;;;;;;;;;5001903;28;19925;-82
2022/10/15 12:29:46;;;;;;;;;;;;;;;;;;5008269;28;19922;-82
2022/10/15 12:32:12;;;;;;;;;;;;;;;;;;5023148;28;19926;-82
2022/10/15 12:34:38;;;;;;;;;;;;;;;;;;5024110;28;19964;-82
2022/10/15 12:37:03;;;;;;;;;;;;;;;;;;5009817;28;19922;-82
2022/10/15 12:39:29;;;;;;;;;;;;;;;;;;5010192;28;20482;-82
2022/10/15 12:41:55;;;;;;;;;;;;;;;;;;5007579;28;19988;-82
2022/10/15 12:44:21;;;;;;;;;;;;;;;;;;5024835;28;19921;-82
2022/10/15 12:46:47;;;;;;;;;;;;;;;;;;5006487;28;19944;-82
2022/10/15 12:49:13;;;;;;;;;;;;;;;;;;5022501;28;19921;-82
2022/10/15 12:51:39;;;;;;;;;;;;;;;;;;4996276;28;19921;-82
2022/10/15 12:54:05;;;;;;;;;;;;;;;;;;5027854;28;19924;-83
2022/10/15 12:56:31;;;;;;;;;;;;;;;;;;5021119;28;20020;-82
2022/10/15 12:58:57;;;;;;;;;;;;;;;;;;5029108;28;19921;-83
2022/10/15 13:01:23;;;;;;;;;;;;;;;;;;5009887;28;19921;-83
2022/10/15 13:03:49;;;;;;;;;;;;;;;;;;5020769;28;20280;-82
2022/10/15 13:06:15;;;;;;;;;;;;;;;;;;5017703;28;20020;-82
2022/10/15 13:08:41;;;;;;;;;;;;;;;;;;4997222;28;19951;-83
2022/10/15 13:11:07;;;;;;;;;;;;;;;;;;5032925;28;19928;-83
2022/10/15 13:13:34;;;;;;;;;;;;;;;;;;5026594;28;19975;-82
2022/10/15 13:16:00;;;;;;;;;;;;;;;;;;5032265;28;19928;-82
2022/10/15 13:18:26;;;;;;;;;;;;;;;;;;5018076;28;19925;-83
2022/10/15 13:20:54;;;;;;;;;;;;;;;;;;5016562;28;19936;-83
2022/10/15 13:23:20;;;;;;;;;;;;;;;;;;5017544;28;19967;-82
2022/10/15 13:25:46;;;;;;;;;;;;;;;;;;5029363;28;19921;-84
2022/10/15 13:28:12;;;;;;;;;;;;;;;;;;5017275;28;19924;-82
2022/10/15 13:30:38;;;;;;;;;;;;;;;;;;5001118;28;19928;-82
2022/10/15 13:33:04;;;;;;;;;;;;;;;;;;5014475;28;19920;-83
2022/10/15 13:35:31;;;;;;;;;;;;;;;;;;5012943;28;19956;-82
2022/10/15 13:37:57;;;;;;;;;;;;;;;;;;5011500;28;19928;-83
2022/10/15 13:40:23;;;;;;;;;;;;;;;;;;5016679;28;19921;-82
2022/10/15 13:42:49;;;;;;;;;;;;;;;;;;5033558;28;19928;-82
2022/10/15 13:45:15;;;;;;;;;;;;;;;;;;5016613;28;20379;-82
2022/10/15 13:47:41;;;;;;;;;;;;;;;;;;5024675;28;19928;-82
2022/10/15 13:50:07;;;;;;;;;;;;;;;;;;5008122;28;19921;-82
2022/10/15 13:52:33;;;;;;;;;;;;;;;;;;5012939;28;19925;-82
2022/10/15 13:54:59;;;;;;;;;;;;;;;;;;5032739;28;19974;-82
2022/10/15 13:57:24;;;;;;;;;;;;;;;;;;5016112;28;19921;-82
2022/10/15 13:59:52;;;;;;;;;;;;;;;;;;5014221;28;19925;-82
2022/10/15 14:02:18;;;;;;;;;;;;;;;;;;5031627;28;19921;-81
2022/10/15 14:04:44;;;;;;;;;;;;;;;;;;5033194;28;19928;-81
2022/10/15 14:07:10;;;;;;;;;;;;;;;;;;4990927;28;19932;-82
2022/10/15 14:09:36;;;;;;;;;;;;;;;;;;5015801;28;20003;-82
2022/10/15 14:12:02;;;;;;;;;;;;;;;;;;5014010;28;19929;-82
2022/10/15 14:14:28;;;;;;;;;;;;;;;;;;5032605;28;19921;-82
2022/10/15 14:16:54;;;;;;;;;;;;;;;;;;5020019;28;19932;-82
2022/10/15 14:19:25;;;;;;;;;;;;;;;;;;5028518;28;19921;-81
2022/10/15 14:21:51;;;;;;;;;;;;;;;;;;5036542;28;19921;-84
2022/10/15 14:24:17;;;;;;;;;;;;;;;;;;5015086;28;19925;-82
2022/10/15 14:26:43;;;;;;;;;;;;;;;;;;5013524;28;19928;-82
2022/10/15 14:29:09;;;;;;;;;;;;;;;;;;5029720;28;19971;-82
2022/10/15 14:31:35;;;;;;;;;;;;;;;;;;5015646;28;19921;-82
2022/10/15 14:34:01;;;;;;;;;;;;;;;;;;5014503;28;19975;-82
2022/10/15 14:36:27;;;;;;;;;;;;;;;;;;5014605;28;19920;-81
2022/10/15 14:38:53;;;;;;;;;;;;;;;;;;4996391;28;19928;-83
2022/10/15 14:41:19;;;;;;;;;;;;;;;;;;5031960;28;19974;-81
2022/10/15 14:43:45;;;;;;;;;;;;;;;;;;5028880;28;19925;-82
2022/10/15 14:46:11;;;;;;;;;;;;;;;;;;5005721;28;19928;-81
2022/10/15 14:48:37;;;;;;;;;;;;;;;;;;5013761;28;20361;-82
2022/10/15 14:51:03;;;;;;;;;;;;;;;;;;4998985;28;20377;-82
2022/10/15 14:53:29;;;;;;;;;;;;;;;;;;5029946;28;19943;-82
2022/10/15 14:55:55;;;;;;;;;;;;;;;;;;5028969;28;20357;-82
2022/10/15 14:58:21;;;;;;;;;;;;;;;;;;5013964;28;19921;-83
2022/10/15 15:00:48;;;;;;;;;;;;;;;;;;5014027;28;20016;-81
2022/10/15 15:03:14;;;;;;;;;;;;;;;;;;5012629;28;19921;-81
2022/10/15 15:05:40;;;;;;;;;;;;;;;;;;5013114;28;19927;-82
2022/10/15 15:08:06;;;;;;;;;;;;;;;;;;5030476;28;19925;-81
2022/10/15 15:10:32;;;;;;;;;;;;;;;;;;5012331;28;19965;-82
2022/10/15 15:12:58;;;;;;;;;;;;;;;;;;5013644;28;19925;-82
2022/10/15 15:15:24;;;;;;;;;;;;;;;;;;5014664;28;19928;-82
2022/10/15 15:17:50;;;;;;;;;;;;;;;;;;5014422;28;19927;-83
2022/10/15 15:20:18;;;;;;;;;;;;;;;;;;5030603;28;19921;-82
2022/10/15 15:22:44;;;;;;;;;;;;;;;;;;5000822;28;20311;-82
2022/10/15 15:25:10;;;;;;;;;;;;;;;;;;5014057;28;19956;-81
2022/10/15 15:27:36;;;;;;;;;;;;;;;;;;5014333;28;20328;-82
2022/10/15 15:30:02;;;;;;;;;;;;;;;;;;5013744;28;20304;-82